sensor_id;sensor_type;location;lat;lon;timestamp;P1;durP1;ratioP1;P2;durP2;ratioP2
32734;SDS011;19112;51.076;3.706;2022-08-07T00:01:31;11.75;;;5.07;;
32734;SDS011;19112;51.076;3.706;2022-08-07T00:03:57;16.40;;;6.03;;
32734;SDS011;19112;51.076;3.706;2022-08-07T00:06:23;13.07;;;5.85;;
32734;SDS011;19112;51.076;3.706;2022-08-07T00:08:50;16.40;;;6.30;;
32734;SDS011;19112;51.076;3.706;2022-08-07T00:11:16;12.77;;;5.50;;
32734;SDS011;19112;51.076;3.706;2022-08-07T00:13:42;15.68;;;5.72;;
32734;SDS011;19112;51.076;3.706;2022-08-07T00:16:10;12.70;;;5.18;;
32734;SDS011;19112;51.076;3.706;2022-08-07T00:18:36;15.60;;;5.35;;
32734;SDS011;19112;51.076;3.706;2022-08-07T00:21:04;12.32;;;4.95;;
32734;SDS011;19112;51.076;3.706;2022-08-07T00:23:32;13.60;;;5.65;;
32734;SDS011;19112;51.076;3.706;2022-08-07T00:26:01;8.70;;;4.40;;
32734;SDS011;19112;51.076;3.706;2022-08-07T00:28:29;13.27;;;5.00;;
32734;SDS011;19112;51.076;3.706;2022-08-07T00:30:56;11.40;;;4.93;;
32734;SDS011;19112;51.076;3.706;2022-08-07T00:33:22;14.15;;;5.07;;
32734;SDS011;19112;51.076;3.706;2022-08-07T00:35:52;10.80;;;4.78;;
32734;SDS011;19112;51.076;3.706;2022-08-07T00:38:21;14.85;;;5.47;;
32734;SDS011;19112;51.076;3.706;2022-08-07T00:40:48;14.18;;;5.25;;
32734;SDS011;19112;51.076;3.706;2022-08-07T00:43:14;14.27;;;5.32;;
32734;SDS011;19112;51.076;3.706;2022-08-07T00:45:41;10.75;;;5.10;;
32734;SDS011;19112;51.076;3.706;2022-08-07T00:48:07;11.65;;;4.97;;
32734;SDS011;19112;51.076;3.706;2022-08-07T00:50:34;15.23;;;5.43;;
32734;SDS011;19112;51.076;3.706;2022-08-07T00:53:01;13.05;;;4.85;;
32734;SDS011;19112;51.076;3.706;2022-08-07T00:55:27;17.38;;;5.53;;
32734;SDS011;19112;51.076;3.706;2022-08-07T00:57:53;13.93;;;5.50;;
32734;SDS011;19112;51.076;3.706;2022-08-07T01:00:20;16.25;;;5.88;;
32734;SDS011;19112;51.076;3.706;2022-08-07T01:02:46;12.73;;;5.13;;
32734;SDS011;19112;51.076;3.706;2022-08-07T01:05:12;14.23;;;5.95;;
32734;SDS011;19112;51.076;3.706;2022-08-07T01:07:40;15.05;;;6.00;;
32734;SDS011;19112;51.076;3.706;2022-08-07T01:10:06;13.52;;;5.72;;
32734;SDS011;19112;51.076;3.706;2022-08-07T01:12:34;13.52;;;5.70;;
32734;SDS011;19112;51.076;3.706;2022-08-07T01:15:02;10.65;;;5.32;;
32734;SDS011;19112;51.076;3.706;2022-08-07T01:17:29;11.38;;;5.32;;
32734;SDS011;19112;51.076;3.706;2022-08-07T01:19:57;10.93;;;4.80;;
32734;SDS011;19112;51.076;3.706;2022-08-07T01:22:36;13.02;;;5.18;;
32734;SDS011;19112;51.076;3.706;2022-08-07T01:25:03;9.70;;;4.50;;
32734;SDS011;19112;51.076;3.706;2022-08-07T01:27:32;16.52;;;5.55;;
32734;SDS011;19112;51.076;3.706;2022-08-07T01:29:58;18.35;;;5.93;;
32734;SDS011;19112;51.076;3.706;2022-08-07T01:32:25;15.35;;;5.68;;
32734;SDS011;19112;51.076;3.706;2022-08-07T01:34:51;11.65;;;5.25;;
32734;SDS011;19112;51.076;3.706;2022-08-07T01:37:17;15.60;;;5.63;;
32734;SDS011;19112;51.076;3.706;2022-08-07T01:39:44;14.55;;;5.82;;
32734;SDS011;19112;51.076;3.706;2022-08-07T01:42:11;13.90;;;5.75;;
32734;SDS011;19112;51.076;3.706;2022-08-07T01:44:41;11.18;;;5.03;;
32734;SDS011;19112;51.076;3.706;2022-08-07T01:47:08;14.25;;;5.97;;
32734;SDS011;19112;51.076;3.706;2022-08-07T01:49:34;15.57;;;6.18;;
32734;SDS011;19112;51.076;3.706;2022-08-07T01:52:01;18.70;;;6.50;;
32734;SDS011;19112;51.076;3.706;2022-08-07T01:54:28;17.85;;;7.30;;
32734;SDS011;19112;51.076;3.706;2022-08-07T01:57:00;16.80;;;7.80;;
32734;SDS011;19112;51.076;3.706;2022-08-07T01:59:49;18.98;;;9.52;;
32734;SDS011;19112;51.076;3.706;2022-08-07T02:03:08;17.60;;;8.00;;
32734;SDS011;19112;51.076;3.706;2022-08-07T02:05:25;21.60;;;8.80;;
32734;SDS011;19112;51.076;3.706;2022-08-07T02:08:02;22.67;;;9.30;;
32734;SDS011;19112;51.076;3.706;2022-08-07T02:10:35;22.63;;;10.82;;
32734;SDS011;19112;51.076;3.706;2022-08-07T02:13:03;21.02;;;10.30;;
32734;SDS011;19112;51.076;3.706;2022-08-07T02:15:29;20.73;;;9.68;;
32734;SDS011;19112;51.076;3.706;2022-08-07T02:17:57;23.48;;;10.85;;
32734;SDS011;19112;51.076;3.706;2022-08-07T02:20:25;22.13;;;11.18;;
32734;SDS011;19112;51.076;3.706;2022-08-07T02:22:55;24.73;;;11.95;;
32734;SDS011;19112;51.076;3.706;2022-08-07T02:25:26;22.30;;;12.63;;
32734;SDS011;19112;51.076;3.706;2022-08-07T02:27:59;22.42;;;11.68;;
32734;SDS011;19112;51.076;3.706;2022-08-07T02:30:26;26.55;;;13.90;;
32734;SDS011;19112;51.076;3.706;2022-08-07T02:32:54;24.33;;;13.43;;
32734;SDS011;19112;51.076;3.706;2022-08-07T02:35:23;25.27;;;14.20;;
32734;SDS011;19112;51.076;3.706;2022-08-07T02:37:50;25.50;;;13.90;;
32734;SDS011;19112;51.076;3.706;2022-08-07T02:40:17;24.92;;;13.60;;
32734;SDS011;19112;51.076;3.706;2022-08-07T02:42:43;23.20;;;12.82;;
32734;SDS011;19112;51.076;3.706;2022-08-07T02:45:11;31.52;;;14.30;;
32734;SDS011;19112;51.076;3.706;2022-08-07T02:47:40;27.25;;;15.27;;
32734;SDS011;19112;51.076;3.706;2022-08-07T02:50:06;27.77;;;16.17;;
32734;SDS011;19112;51.076;3.706;2022-08-07T02:52:46;27.63;;;15.60;;
32734;SDS011;19112;51.076;3.706;2022-08-07T02:55:22;27.10;;;15.30;;
32734;SDS011;19112;51.076;3.706;2022-08-07T02:57:51;28.55;;;16.65;;
32734;SDS011;19112;51.076;3.706;2022-08-07T03:00:23;32.50;;;16.67;;
32734;SDS011;19112;51.076;3.706;2022-08-07T03:02:52;26.80;;;15.52;;
32734;SDS011;19112;51.076;3.706;2022-08-07T03:05:18;30.20;;;17.33;;
32734;SDS011;19112;51.076;3.706;2022-08-07T03:07:45;26.38;;;16.25;;
32734;SDS011;19112;51.076;3.706;2022-08-07T03:10:12;30.77;;;17.67;;
32734;SDS011;19112;51.076;3.706;2022-08-07T03:12:38;28.15;;;16.33;;
32734;SDS011;19112;51.076;3.706;2022-08-07T03:15:06;36.10;;;18.80;;
32734;SDS011;19112;51.076;3.706;2022-08-07T03:17:33;34.95;;;19.42;;
32734;SDS011;19112;51.076;3.706;2022-08-07T03:20:01;28.00;;;16.20;;
32734;SDS011;19112;51.076;3.706;2022-08-07T03:22:28;29.90;;;17.08;;
32734;SDS011;19112;51.076;3.706;2022-08-07T03:24:55;31.42;;;18.23;;
32734;SDS011;19112;51.076;3.706;2022-08-07T03:27:23;29.73;;;17.25;;
32734;SDS011;19112;51.076;3.706;2022-08-07T03:29:50;32.15;;;16.88;;
32734;SDS011;19112;51.076;3.706;2022-08-07T03:32:22;32.00;;;16.48;;
32734;SDS011;19112;51.076;3.706;2022-08-07T03:34:53;32.47;;;18.45;;
32734;SDS011;19112;51.076;3.706;2022-08-07T03:37:24;33.92;;;18.00;;
32734;SDS011;19112;51.076;3.706;2022-08-07T03:39:53;33.03;;;17.55;;
32734;SDS011;19112;51.076;3.706;2022-08-07T03:42:19;35.55;;;18.17;;
32734;SDS011;19112;51.076;3.706;2022-08-07T03:44:46;29.48;;;16.58;;
32734;SDS011;19112;51.076;3.706;2022-08-07T03:47:12;29.92;;;16.42;;
32734;SDS011;19112;51.076;3.706;2022-08-07T03:49:39;32.05;;;17.67;;
32734;SDS011;19112;51.076;3.706;2022-08-07T03:52:06;33.70;;;18.05;;
32734;SDS011;19112;51.076;3.706;2022-08-07T03:54:34;29.67;;;15.55;;
32734;SDS011;19112;51.076;3.706;2022-08-07T03:57:00;31.55;;;18.05;;
32734;SDS011;19112;51.076;3.706;2022-08-07T03:59:30;33.22;;;17.70;;
32734;SDS011;19112;51.076;3.706;2022-08-07T04:01:56;31.88;;;17.60;;
32734;SDS011;19112;51.076;3.706;2022-08-07T04:04:23;31.42;;;17.25;;
32734;SDS011;19112;51.076;3.706;2022-08-07T04:06:50;30.17;;;16.60;;
32734;SDS011;19112;51.076;3.706;2022-08-07T04:09:16;31.27;;;17.27;;
32734;SDS011;19112;51.076;3.706;2022-08-07T04:11:44;33.97;;;17.88;;
32734;SDS011;19112;51.076;3.706;2022-08-07T04:14:11;34.05;;;18.45;;
32734;SDS011;19112;51.076;3.706;2022-08-07T04:16:37;33.33;;;18.33;;
32734;SDS011;19112;51.076;3.706;2022-08-07T04:19:03;31.52;;;16.52;;
32734;SDS011;19112;51.076;3.706;2022-08-07T04:21:31;33.38;;;19.00;;
32734;SDS011;19112;51.076;3.706;2022-08-07T04:23:57;34.72;;;19.27;;
32734;SDS011;19112;51.076;3.706;2022-08-07T04:26:23;37.38;;;19.42;;
32734;SDS011;19112;51.076;3.706;2022-08-07T04:28:49;33.20;;;18.33;;
32734;SDS011;19112;51.076;3.706;2022-08-07T04:31:15;32.47;;;18.30;;
32734;SDS011;19112;51.076;3.706;2022-08-07T04:33:41;30.80;;;17.38;;
32734;SDS011;19112;51.076;3.706;2022-08-07T04:36:10;31.30;;;17.42;;
32734;SDS011;19112;51.076;3.706;2022-08-07T04:38:38;30.52;;;17.02;;
32734;SDS011;19112;51.076;3.706;2022-08-07T04:41:04;31.42;;;18.92;;
32734;SDS011;19112;51.076;3.706;2022-08-07T04:43:34;31.75;;;19.02;;
32734;SDS011;19112;51.076;3.706;2022-08-07T04:46:05;36.53;;;18.60;;
32734;SDS011;19112;51.076;3.706;2022-08-07T04:48:48;36.97;;;18.83;;
32734;SDS011;19112;51.076;3.706;2022-08-07T04:56:53;32.13;;;16.60;;
32734;SDS011;19112;51.076;3.706;2022-08-07T04:59:54;36.53;;;17.90;;
32734;SDS011;19112;51.076;3.706;2022-08-07T05:02:45;32.50;;;17.98;;
32734;SDS011;19112;51.076;3.706;2022-08-07T05:05:20;31.73;;;17.77;;
32734;SDS011;19112;51.076;3.706;2022-08-07T05:10:51;30.13;;;17.45;;
32734;SDS011;19112;51.076;3.706;2022-08-07T05:13:54;28.13;;;15.45;;
32734;SDS011;19112;51.076;3.706;2022-08-07T05:16:25;31.95;;;17.17;;
32734;SDS011;19112;51.076;3.706;2022-08-07T05:19:00;30.23;;;15.13;;
32734;SDS011;19112;51.076;3.706;2022-08-07T05:21:34;29.20;;;15.98;;
32734;SDS011;19112;51.076;3.706;2022-08-07T05:24:03;37.30;;;19.05;;
32734;SDS011;19112;51.076;3.706;2022-08-07T05:26:34;37.83;;;18.63;;
32734;SDS011;19112;51.076;3.706;2022-08-07T05:29:03;36.40;;;20.38;;
32734;SDS011;19112;51.076;3.706;2022-08-07T05:31:32;35.75;;;21.60;;
32734;SDS011;19112;51.076;3.706;2022-08-07T05:34:02;34.17;;;20.23;;
32734;SDS011;19112;51.076;3.706;2022-08-07T05:36:42;38.80;;;23.50;;
32734;SDS011;19112;51.076;3.706;2022-08-07T05:39:15;38.80;;;21.55;;
32734;SDS011;19112;51.076;3.706;2022-08-07T05:41:43;37.70;;;21.02;;
32734;SDS011;19112;51.076;3.706;2022-08-07T05:44:11;37.33;;;20.23;;
32734;SDS011;19112;51.076;3.706;2022-08-07T05:46:39;32.55;;;19.40;;
32734;SDS011;19112;51.076;3.706;2022-08-07T05:49:07;31.90;;;19.00;;
32734;SDS011;19112;51.076;3.706;2022-08-07T05:51:33;32.65;;;19.45;;
32734;SDS011;19112;51.076;3.706;2022-08-07T05:54:00;32.63;;;19.55;;
32734;SDS011;19112;51.076;3.706;2022-08-07T05:56:26;35.40;;;19.40;;
32734;SDS011;19112;51.076;3.706;2022-08-07T05:58:53;31.45;;;18.63;;
32734;SDS011;19112;51.076;3.706;2022-08-07T06:01:19;32.70;;;18.45;;
32734;SDS011;19112;51.076;3.706;2022-08-07T06:03:48;32.22;;;17.50;;
32734;SDS011;19112;51.076;3.706;2022-08-07T06:06:18;29.55;;;17.27;;
32734;SDS011;19112;51.076;3.706;2022-08-07T06:08:45;29.83;;;16.17;;
32734;SDS011;19112;51.076;3.706;2022-08-07T06:11:11;30.13;;;15.75;;
32734;SDS011;19112;51.076;3.706;2022-08-07T06:13:38;29.50;;;17.00;;
32734;SDS011;19112;51.076;3.706;2022-08-07T06:16:05;29.73;;;17.42;;
32734;SDS011;19112;51.076;3.706;2022-08-07T06:18:32;29.15;;;16.25;;
32734;SDS011;19112;51.076;3.706;2022-08-07T06:21:02;26.52;;;14.82;;
32734;SDS011;19112;51.076;3.706;2022-08-07T06:23:29;28.65;;;15.23;;
32734;SDS011;19112;51.076;3.706;2022-08-07T06:25:56;28.23;;;14.45;;
32734;SDS011;19112;51.076;3.706;2022-08-07T06:28:23;25.55;;;14.18;;
32734;SDS011;19112;51.076;3.706;2022-08-07T06:30:50;28.10;;;14.18;;
32734;SDS011;19112;51.076;3.706;2022-08-07T06:33:16;28.90;;;14.90;;
32734;SDS011;19112;51.076;3.706;2022-08-07T06:35:43;30.20;;;15.68;;
32734;SDS011;19112;51.076;3.706;2022-08-07T06:38:09;28.80;;;15.25;;
32734;SDS011;19112;51.076;3.706;2022-08-07T06:40:36;30.50;;;15.55;;
32734;SDS011;19112;51.076;3.706;2022-08-07T06:43:10;30.33;;;14.50;;
32734;SDS011;19112;51.076;3.706;2022-08-07T06:45:37;30.40;;;14.77;;
32734;SDS011;19112;51.076;3.706;2022-08-07T06:48:03;26.65;;;15.32;;
32734;SDS011;19112;51.076;3.706;2022-08-07T06:50:30;31.00;;;16.13;;
32734;SDS011;19112;51.076;3.706;2022-08-07T06:53:00;23.38;;;11.38;;
32734;SDS011;19112;51.076;3.706;2022-08-07T06:55:28;24.95;;;11.55;;
32734;SDS011;19112;51.076;3.706;2022-08-07T06:57:58;22.17;;;10.43;;
32734;SDS011;19112;51.076;3.706;2022-08-07T07:00:27;23.33;;;9.30;;
32734;SDS011;19112;51.076;3.706;2022-08-07T07:02:59;21.33;;;8.93;;
32734;SDS011;19112;51.076;3.706;2022-08-07T07:05:26;16.55;;;7.28;;
32734;SDS011;19112;51.076;3.706;2022-08-07T07:07:53;19.50;;;7.57;;
32734;SDS011;19112;51.076;3.706;2022-08-07T07:10:28;15.65;;;6.50;;
32734;SDS011;19112;51.076;3.706;2022-08-07T07:13:21;17.52;;;6.65;;
32734;SDS011;19112;51.076;3.706;2022-08-07T07:15:54;18.02;;;6.47;;
32734;SDS011;19112;51.076;3.706;2022-08-07T07:18:35;17.15;;;6.10;;
32734;SDS011;19112;51.076;3.706;2022-08-07T07:21:29;15.55;;;5.85;;
32734;SDS011;19112;51.076;3.706;2022-08-07T07:24:00;16.48;;;5.47;;
32734;SDS011;19112;51.076;3.706;2022-08-07T07:26:26;14.18;;;5.47;;
32734;SDS011;19112;51.076;3.706;2022-08-07T07:28:58;15.82;;;5.40;;
32734;SDS011;19112;51.076;3.706;2022-08-07T07:31:33;15.00;;;5.70;;
32734;SDS011;19112;51.076;3.706;2022-08-07T07:34:05;16.85;;;6.53;;
32734;SDS011;19112;51.076;3.706;2022-08-07T07:36:35;17.02;;;6.35;;
32734;SDS011;19112;51.076;3.706;2022-08-07T07:39:04;14.63;;;6.40;;
32734;SDS011;19112;51.076;3.706;2022-08-07T07:41:31;18.88;;;5.85;;
32734;SDS011;19112;51.076;3.706;2022-08-07T07:43:59;19.92;;;6.07;;
32734;SDS011;19112;51.076;3.706;2022-08-07T07:46:28;21.50;;;7.50;;
32734;SDS011;19112;51.076;3.706;2022-08-07T07:48:58;18.17;;;7.15;;
32734;SDS011;19112;51.076;3.706;2022-08-07T07:51:25;18.10;;;6.63;;
32734;SDS011;19112;51.076;3.706;2022-08-07T07:53:52;21.48;;;7.72;;
32734;SDS011;19112;51.076;3.706;2022-08-07T07:56:22;19.23;;;7.70;;
32734;SDS011;19112;51.076;3.706;2022-08-07T07:58:50;22.70;;;8.35;;
32734;SDS011;19112;51.076;3.706;2022-08-07T08:01:18;20.00;;;7.45;;
32734;SDS011;19112;51.076;3.706;2022-08-07T08:03:46;19.95;;;8.55;;
32734;SDS011;19112;51.076;3.706;2022-08-07T08:06:14;22.60;;;8.10;;
32734;SDS011;19112;51.076;3.706;2022-08-07T08:08:41;23.63;;;8.88;;
32734;SDS011;19112;51.076;3.706;2022-08-07T08:11:08;19.65;;;7.88;;
32734;SDS011;19112;51.076;3.706;2022-08-07T08:13:40;19.98;;;7.82;;
32734;SDS011;19112;51.076;3.706;2022-08-07T08:16:08;19.83;;;7.53;;
32734;SDS011;19112;51.076;3.706;2022-08-07T08:18:41;20.42;;;7.68;;
32734;SDS011;19112;51.076;3.706;2022-08-07T08:21:09;20.17;;;7.47;;
32734;SDS011;19112;51.076;3.706;2022-08-07T08:23:58;19.52;;;6.53;;
32734;SDS011;19112;51.076;3.706;2022-08-07T08:26:46;16.42;;;6.18;;
32734;SDS011;19112;51.076;3.706;2022-08-07T08:29:30;16.15;;;6.22;;
32734;SDS011;19112;51.076;3.706;2022-08-07T08:32:08;17.55;;;6.47;;
32734;SDS011;19112;51.076;3.706;2022-08-07T08:34:39;16.52;;;5.90;;
32734;SDS011;19112;51.076;3.706;2022-08-07T08:37:06;14.65;;;5.70;;
32734;SDS011;19112;51.076;3.706;2022-08-07T08:39:34;16.63;;;5.53;;
32734;SDS011;19112;51.076;3.706;2022-08-07T08:42:02;17.58;;;5.95;;
32734;SDS011;19112;51.076;3.706;2022-08-07T08:45:04;15.07;;;5.50;;
32734;SDS011;19112;51.076;3.706;2022-08-07T08:51:15;16.45;;;5.85;;
32734;SDS011;19112;51.076;3.706;2022-08-07T08:56:45;13.38;;;5.60;;
32734;SDS011;19112;51.076;3.706;2022-08-07T09:07:58;13.70;;;4.63;;
32734;SDS011;19112;51.076;3.706;2022-08-07T09:10:42;10.27;;;4.32;;
32734;SDS011;19112;51.076;3.706;2022-08-07T09:16:43;12.55;;;4.57;;
32734;SDS011;19112;51.076;3.706;2022-08-07T09:25:49;15.82;;;4.72;;
32734;SDS011;19112;51.076;3.706;2022-08-07T09:28:30;11.82;;;4.47;;
32734;SDS011;19112;51.076;3.706;2022-08-07T09:31:07;14.32;;;4.60;;
32734;SDS011;19112;51.076;3.706;2022-08-07T09:47:50;12.32;;;4.35;;
32734;SDS011;19112;51.076;3.706;2022-08-07T09:53:59;13.18;;;4.57;;
32734;SDS011;19112;51.076;3.706;2022-08-07T09:56:41;12.05;;;3.78;;
32734;SDS011;19112;51.076;3.706;2022-08-07T10:11:23;8.18;;;2.85;;
32734;SDS011;19112;51.076;3.706;2022-08-07T10:17:23;8.90;;;2.70;;
32734;SDS011;19112;51.076;3.706;2022-08-07T10:35:41;3.88;;;1.98;;
32734;SDS011;19112;51.076;3.706;2022-08-07T10:38:38;7.60;;;1.92;;
32734;SDS011;19112;51.076;3.706;2022-08-07T10:41:27;3.20;;;2.00;;
32734;SDS011;19112;51.076;3.706;2022-08-07T10:46:56;6.80;;;2.40;;
32734;SDS011;19112;51.076;3.706;2022-08-07T10:52:18;5.70;;;2.60;;
32734;SDS011;19112;51.076;3.706;2022-08-07T10:54:56;6.45;;;2.13;;
32734;SDS011;19112;51.076;3.706;2022-08-07T11:01:48;5.15;;;2.58;;
32734;SDS011;19112;51.076;3.706;2022-08-07T11:03:47;9.38;;;2.78;;
32734;SDS011;19112;51.076;3.706;2022-08-07T11:09:33;5.20;;;2.47;;
32734;SDS011;19112;51.076;3.706;2022-08-07T11:12:17;5.32;;;2.58;;
32734;SDS011;19112;51.076;3.706;2022-08-07T11:14:57;5.15;;;2.08;;
32734;SDS011;19112;51.076;3.706;2022-08-07T11:20:19;8.75;;;2.25;;
32734;SDS011;19112;51.076;3.706;2022-08-07T11:26:25;10.05;;;2.70;;
32734;SDS011;19112;51.076;3.706;2022-08-07T11:29:39;6.90;;;2.38;;
32734;SDS011;19112;51.076;3.706;2022-08-07T11:32:15;5.93;;;2.63;;
32734;SDS011;19112;51.076;3.706;2022-08-07T11:43:01;4.55;;;2.40;;
32734;SDS011;19112;51.076;3.706;2022-08-07T12:06:20;5.85;;;2.60;;
32734;SDS011;19112;51.076;3.706;2022-08-07T12:09:34;8.70;;;3.35;;
32734;SDS011;19112;51.076;3.706;2022-08-07T12:12:18;14.55;;;4.43;;
32734;SDS011;19112;51.076;3.706;2022-08-07T12:15:01;13.13;;;3.88;;
32734;SDS011;19112;51.076;3.706;2022-08-07T12:17:46;9.55;;;3.25;;
32734;SDS011;19112;51.076;3.706;2022-08-07T12:26:24;5.93;;;2.42;;
32734;SDS011;19112;51.076;3.706;2022-08-07T12:29:34;8.07;;;2.72;;
32734;SDS011;19112;51.076;3.706;2022-08-07T12:32:30;5.35;;;3.05;;
32734;SDS011;19112;51.076;3.706;2022-08-07T12:35:01;6.97;;;3.33;;
32734;SDS011;19112;51.076;3.706;2022-08-07T12:37:28;8.43;;;3.15;;
32734;SDS011;19112;51.076;3.706;2022-08-07T12:39:56;10.60;;;3.55;;
32734;SDS011;19112;51.076;3.706;2022-08-07T12:42:26;6.90;;;2.25;;
32734;SDS011;19112;51.076;3.706;2022-08-07T12:44:58;8.25;;;3.20;;
32734;SDS011;19112;51.076;3.706;2022-08-07T12:47:41;9.90;;;3.17;;
32734;SDS011;19112;51.076;3.706;2022-08-07T12:50:35;8.77;;;3.33;;
32734;SDS011;19112;51.076;3.706;2022-08-07T12:55:57;6.65;;;2.75;;
32734;SDS011;19112;51.076;3.706;2022-08-07T12:58:51;8.77;;;2.70;;
32734;SDS011;19112;51.076;3.706;2022-08-07T13:16:28;7.63;;;3.45;;
32734;SDS011;19112;51.076;3.706;2022-08-07T13:19:05;9.35;;;3.60;;
32734;SDS011;19112;51.076;3.706;2022-08-07T13:22:08;7.45;;;2.90;;
32734;SDS011;19112;51.076;3.706;2022-08-07T13:24:51;8.73;;;2.80;;
32734;SDS011;19112;51.076;3.706;2022-08-07T13:27:26;8.57;;;3.03;;
32734;SDS011;19112;51.076;3.706;2022-08-07T13:30:08;3.92;;;2.67;;
32734;SDS011;19112;51.076;3.706;2022-08-07T13:35:29;7.70;;;2.90;;
32734;SDS011;19112;51.076;3.706;2022-08-07T13:38:21;8.43;;;2.60;;
32734;SDS011;19112;51.076;3.706;2022-08-07T13:44:00;6.13;;;2.17;;
32734;SDS011;19112;51.076;3.706;2022-08-07T13:46:33;4.30;;;2.28;;
32734;SDS011;19112;51.076;3.706;2022-08-07T13:49:04;7.53;;;2.80;;
32734;SDS011;19112;51.076;3.706;2022-08-07T13:51:33;6.97;;;2.70;;
32734;SDS011;19112;51.076;3.706;2022-08-07T13:54:04;6.35;;;2.70;;
32734;SDS011;19112;51.076;3.706;2022-08-07T13:56:35;3.55;;;2.40;;
32734;SDS011;19112;51.076;3.706;2022-08-07T13:59:11;3.90;;;2.47;;
32734;SDS011;19112;51.076;3.706;2022-08-07T14:01:52;8.00;;;2.60;;
32734;SDS011;19112;51.076;3.706;2022-08-07T14:05:06;6.65;;;1.98;;
32734;SDS011;19112;51.076;3.706;2022-08-07T14:07:32;3.30;;;2.00;;
32734;SDS011;19112;51.076;3.706;2022-08-07T14:10:05;5.30;;;2.15;;
32734;SDS011;19112;51.076;3.706;2022-08-07T14:12:37;3.22;;;2.08;;
32734;SDS011;19112;51.076;3.706;2022-08-07T14:15:29;6.35;;;2.00;;
32734;SDS011;19112;51.076;3.706;2022-08-07T14:18:03;4.20;;;1.98;;
32734;SDS011;19112;51.076;3.706;2022-08-07T14:20:40;4.78;;;1.88;;
32734;SDS011;19112;51.076;3.706;2022-08-07T14:23:13;5.05;;;2.13;;
32734;SDS011;19112;51.076;3.706;2022-08-07T14:25:45;7.28;;;2.08;;
32734;SDS011;19112;51.076;3.706;2022-08-07T14:28:18;4.78;;;2.15;;
32734;SDS011;19112;51.076;3.706;2022-08-07T14:30:47;6.57;;;1.85;;
32734;SDS011;19112;51.076;3.706;2022-08-07T14:33:14;4.30;;;1.90;;
32734;SDS011;19112;51.076;3.706;2022-08-07T14:35:41;11.23;;;1.98;;
32734;SDS011;19112;51.076;3.706;2022-08-07T14:38:09;3.70;;;1.83;;
32734;SDS011;19112;51.076;3.706;2022-08-07T14:40:37;3.28;;;1.95;;
32734;SDS011;19112;51.076;3.706;2022-08-07T14:43:05;7.50;;;2.28;;
32734;SDS011;19112;51.076;3.706;2022-08-07T14:45:41;4.72;;;2.00;;
32734;SDS011;19112;51.076;3.706;2022-08-07T14:48:17;3.08;;;2.00;;
32734;SDS011;19112;51.076;3.706;2022-08-07T14:50:47;8.50;;;2.17;;
32734;SDS011;19112;51.076;3.706;2022-08-07T14:53:20;4.63;;;2.10;;
32734;SDS011;19112;51.076;3.706;2022-08-07T14:55:49;7.55;;;2.33;;
32734;SDS011;19112;51.076;3.706;2022-08-07T14:58:16;3.08;;;2.00;;
32734;SDS011;19112;51.076;3.706;2022-08-07T15:00:47;3.70;;;2.03;;
32734;SDS011;19112;51.076;3.706;2022-08-07T15:03:15;4.50;;;1.70;;
32734;SDS011;19112;51.076;3.706;2022-08-07T15:05:46;5.40;;;1.73;;
32734;SDS011;19112;51.076;3.706;2022-08-07T15:08:13;3.45;;;1.67;;
32734;SDS011;19112;51.076;3.706;2022-08-07T15:10:54;6.00;;;1.92;;
32734;SDS011;19112;51.076;3.706;2022-08-07T15:14:02;5.57;;;2.20;;
32734;SDS011;19112;51.076;3.706;2022-08-07T15:16:40;4.68;;;1.73;;
32734;SDS011;19112;51.076;3.706;2022-08-07T15:19:15;7.68;;;2.22;;
32734;SDS011;19112;51.076;3.706;2022-08-07T15:24:14;3.97;;;1.80;;
32734;SDS011;19112;51.076;3.706;2022-08-07T15:26:54;7.03;;;2.30;;
32734;SDS011;19112;51.076;3.706;2022-08-07T15:29:38;3.75;;;2.08;;
32734;SDS011;19112;51.076;3.706;2022-08-07T15:32:07;5.35;;;2.33;;
32734;SDS011;19112;51.076;3.706;2022-08-07T15:34:44;5.20;;;2.10;;
32734;SDS011;19112;51.076;3.706;2022-08-07T15:37:16;4.88;;;2.55;;
32734;SDS011;19112;51.076;3.706;2022-08-07T15:39:58;6.75;;;2.65;;
32734;SDS011;19112;51.076;3.706;2022-08-07T15:42:35;6.80;;;2.55;;
32734;SDS011;19112;51.076;3.706;2022-08-07T15:45:57;6.90;;;2.28;;
32734;SDS011;19112;51.076;3.706;2022-08-07T15:50:37;7.10;;;2.10;;
32734;SDS011;19112;51.076;3.706;2022-08-07T15:53:11;7.50;;;2.53;;
32734;SDS011;19112;51.076;3.706;2022-08-07T15:55:44;9.27;;;2.45;;
32734;SDS011;19112;51.076;3.706;2022-08-07T15:58:20;5.97;;;2.78;;
32734;SDS011;19112;51.076;3.706;2022-08-07T16:01:03;7.60;;;2.47;;
32734;SDS011;19112;51.076;3.706;2022-08-07T16:03:43;8.45;;;2.38;;
32734;SDS011;19112;51.076;3.706;2022-08-07T16:06:13;9.93;;;2.77;;
32734;SDS011;19112;51.076;3.706;2022-08-07T16:08:48;6.18;;;2.40;;
32734;SDS011;19112;51.076;3.706;2022-08-07T16:21:06;8.98;;;3.05;;
32734;SDS011;19112;51.076;3.706;2022-08-07T16:35:34;6.57;;;2.60;;
32734;SDS011;19112;51.076;3.706;2022-08-07T17:00:26;7.18;;;2.72;;
32734;SDS011;19112;51.076;3.706;2022-08-07T17:03:22;28.42;;;4.15;;
32734;SDS011;19112;51.076;3.706;2022-08-07T17:09:19;5.72;;;2.60;;
32734;SDS011;19112;51.076;3.706;2022-08-07T17:12:09;5.05;;;2.30;;
32734;SDS011;19112;51.076;3.706;2022-08-07T17:14:42;5.60;;;2.35;;
32734;SDS011;19112;51.076;3.706;2022-08-07T17:23:04;10.60;;;2.58;;
32734;SDS011;19112;51.076;3.706;2022-08-07T17:34:03;12.50;;;3.08;;
32734;SDS011;19112;51.076;3.706;2022-08-07T17:36:39;7.30;;;2.78;;
32734;SDS011;19112;51.076;3.706;2022-08-07T17:39:13;5.90;;;2.97;;
32734;SDS011;19112;51.076;3.706;2022-08-07T17:42:02;6.88;;;2.70;;
32734;SDS011;19112;51.076;3.706;2022-08-07T17:47:12;11.05;;;3.10;;
32734;SDS011;19112;51.076;3.706;2022-08-07T17:50:00;5.30;;;3.00;;
32734;SDS011;19112;51.076;3.706;2022-08-07T17:52:37;8.45;;;3.15;;
32734;SDS011;19112;51.076;3.706;2022-08-07T17:55:14;9.15;;;3.05;;
32734;SDS011;19112;51.076;3.706;2022-08-07T17:57:48;8.95;;;3.40;;
32734;SDS011;19112;51.076;3.706;2022-08-07T18:00:26;8.10;;;3.35;;
32734;SDS011;19112;51.076;3.706;2022-08-07T18:02:55;14.53;;;3.70;;
32734;SDS011;19112;51.076;3.706;2022-08-07T18:08:23;11.13;;;3.53;;
32734;SDS011;19112;51.076;3.706;2022-08-07T18:11:14;9.07;;;3.50;;
32734;SDS011;19112;51.076;3.706;2022-08-07T18:16:54;9.70;;;3.75;;
32734;SDS011;19112;51.076;3.706;2022-08-07T18:19:45;7.95;;;3.53;;
32734;SDS011;19112;51.076;3.706;2022-08-07T18:22:35;10.00;;;3.65;;
32734;SDS011;19112;51.076;3.706;2022-08-07T18:25:13;9.52;;;3.67;;
32734;SDS011;19112;51.076;3.706;2022-08-07T18:28:10;9.20;;;3.83;;
32734;SDS011;19112;51.076;3.706;2022-08-07T18:43:22;7.82;;;3.60;;
32734;SDS011;19112;51.076;3.706;2022-08-07T18:46:11;10.50;;;3.72;;
32734;SDS011;19112;51.076;3.706;2022-08-07T19:03:16;12.60;;;4.28;;
32734;SDS011;19112;51.076;3.706;2022-08-07T19:05:59;11.93;;;3.92;;
32734;SDS011;19112;51.076;3.706;2022-08-07T19:08:31;12.05;;;4.00;;
32734;SDS011;19112;51.076;3.706;2022-08-07T19:14:11;14.05;;;4.50;;
32734;SDS011;19112;51.076;3.706;2022-08-07T19:16:57;10.80;;;4.03;;
32734;SDS011;19112;51.076;3.706;2022-08-07T19:19:28;12.57;;;4.15;;
32734;SDS011;19112;51.076;3.706;2022-08-07T19:24:47;14.55;;;4.10;;
32734;SDS011;19112;51.076;3.706;2022-08-07T19:27:16;9.38;;;3.88;;
32734;SDS011;19112;51.076;3.706;2022-08-07T19:29:53;10.15;;;3.55;;
32734;SDS011;19112;51.076;3.706;2022-08-07T19:32:24;9.05;;;3.67;;
32734;SDS011;19112;51.076;3.706;2022-08-07T19:34:56;8.95;;;4.03;;
32734;SDS011;19112;51.076;3.706;2022-08-07T19:37:26;10.48;;;3.42;;
32734;SDS011;19112;51.076;3.706;2022-08-07T19:40:00;19.98;;;4.20;;